createdAt,value
2022-12-08T00:01:26.967Z,92.63
2022-12-08T00:03:54.083Z,92.69
2022-12-08T00:06:42.346Z,92.66
2022-12-08T00:09:38.344Z,92.47
2022-12-08T00:12:08.650Z,92.53
2022-12-08T00:14:46.157Z,92.61
2022-12-08T00:17:15.238Z,92.48
2022-12-08T00:19:42.913Z,92.61
2022-12-08T00:22:11.173Z,92.39
2022-12-08T00:24:40.046Z,92.17
2022-12-08T00:27:11.290Z,92.10
2022-12-08T00:29:38.239Z,92.01
2022-12-08T00:32:05.881Z,92.31
2022-12-08T00:34:33.345Z,92.10
2022-12-08T00:37:00.314Z,91.95
2022-12-08T00:39:27.099Z,91.85
2022-12-08T00:42:12.329Z,92.04
2022-12-08T00:44:40.631Z,91.77
2022-12-08T00:47:07.265Z,91.81
2022-12-08T00:49:34.044Z,91.94
2022-12-08T00:52:01.357Z,91.69
2022-12-08T00:54:28.164Z,91.94
2022-12-08T00:56:54.946Z,92.07
2022-12-08T01:01:41.631Z,92.25
2022-12-08T01:04:12.988Z,92.38
2022-12-08T01:06:39.809Z,92.12
2022-12-08T01:09:07.694Z,92.10
2022-12-08T01:11:35.336Z,92.14
2022-12-08T01:14:02.185Z,92.30
2022-12-08T01:16:32.690Z,92.37
2022-12-08T01:19:00.613Z,92.65
2022-12-08T01:21:27.800Z,92.43
2022-12-08T01:23:55.967Z,92.16
2022-12-08T01:26:22.602Z,92.35
2022-12-08T01:28:49.210Z,92.20
2022-12-08T01:31:18.915Z,92.10
2022-12-08T01:33:45.997Z,92.15
2022-12-08T01:36:26.945Z,92.11
2022-12-08T01:38:54.767Z,91.85
2022-12-08T01:41:25.227Z,91.73
2022-12-08T01:44:04.130Z,91.85
2022-12-08T01:46:33.277Z,91.78
2022-12-08T01:49:26.580Z,91.70
2022-12-08T01:52:00.317Z,91.68
2022-12-08T01:54:32.183Z,91.51
2022-12-08T01:57:16.717Z,91.68
2022-12-08T01:59:48.853Z,91.73
2022-12-08T02:02:15.757Z,91.52
2022-12-08T02:04:45.734Z,91.65
2022-12-08T02:07:14.619Z,91.85
2022-12-08T02:09:42.797Z,91.73
2022-12-08T02:12:10.992Z,91.66
2022-12-08T02:14:38.021Z,91.62
2022-12-08T02:17:43.166Z,91.71
2022-12-08T02:20:42.435Z,91.89
2022-12-08T02:23:30.327Z,91.79
2022-12-08T02:26:14.388Z,91.71
2022-12-08T02:29:00.015Z,91.62
2022-12-08T02:31:56.261Z,91.63
2022-12-08T02:34:44.119Z,91.42
2022-12-08T02:37:37.616Z,91.39
2022-12-08T02:40:33.283Z,91.46
2022-12-08T02:43:23.691Z,91.44
2022-12-08T02:46:03.570Z,91.31
2022-12-08T02:48:32.834Z,91.35
2022-12-08T02:51:00.185Z,91.62
2022-12-08T02:53:33.304Z,91.22
2022-12-08T02:56:37.480Z,91.21
2022-12-08T02:59:24.470Z,91.22
2022-12-08T03:02:06.137Z,91.08
2022-12-08T03:04:40.260Z,91.02
2022-12-08T03:07:37.325Z,91.06
2022-12-08T03:10:19.614Z,90.91
2022-12-08T03:12:51.023Z,91.02
2022-12-08T03:15:21.530Z,91.01
2022-12-08T03:17:54.326Z,91.17
2022-12-08T03:20:24.220Z,91.23
2022-12-08T03:22:54.043Z,91.26
2022-12-08T03:25:24.666Z,91.26
2022-12-08T03:27:52.425Z,90.98
2022-12-08T03:30:19.403Z,90.64
2022-12-08T03:32:57.446Z,90.45
2022-12-08T03:35:30.234Z,90.78
2022-12-08T03:38:11.784Z,90.58
2022-12-08T03:40:39.283Z,90.49
2022-12-08T03:43:06.125Z,90.39
2022-12-08T03:45:33.608Z,90.43
2022-12-08T03:48:00.496Z,90.53
2022-12-08T03:50:27.521Z,90.04
2022-12-08T03:52:54.153Z,90.07
2022-12-08T03:55:21.654Z,90.25
2022-12-08T03:57:48.581Z,90.24
2022-12-08T04:00:17.096Z,90.24
2022-12-08T04:02:43.855Z,90.52
2022-12-08T04:05:10.868Z,90.66
2022-12-08T04:07:37.690Z,90.55
2022-12-08T04:10:05.736Z,90.70
2022-12-08T04:12:32.773Z,90.61
2022-12-08T04:14:59.497Z,90.71
2022-12-08T04:17:26.160Z,91.13
2022-12-08T04:19:52.777Z,91.17
2022-12-08T04:22:19.480Z,91.01
2022-12-08T04:24:46.174Z,91.08
2022-12-08T04:27:12.720Z,91.27
2022-12-08T04:29:39.314Z,91.65
2022-12-08T04:32:06.009Z,91.85
2022-12-08T04:34:32.643Z,92.17
2022-12-08T04:36:59.205Z,92.47
2022-12-08T04:39:25.942Z,92.71
2022-12-08T04:41:52.635Z,92.91
2022-12-08T04:44:19.374Z,93.30
2022-12-08T04:46:46.387Z,93.69
2022-12-08T04:49:13.052Z,94.09
2022-12-08T04:51:39.913Z,94.03
2022-12-08T04:54:06.738Z,94.15
2022-12-08T04:56:33.312Z,94.51
2022-12-08T04:58:59.926Z,94.58
2022-12-08T05:01:26.767Z,94.52
2022-12-08T05:03:53.493Z,94.67
2022-12-08T05:06:20.175Z,94.68
2022-12-08T05:08:46.820Z,94.86
2022-12-08T05:11:13.716Z,94.93
2022-12-08T05:13:40.498Z,95.07
2022-12-08T05:16:10.733Z,95.21
2022-12-08T05:18:37.951Z,94.98
2022-12-08T05:21:05.679Z,94.91
2022-12-08T05:23:32.766Z,94.95
2022-12-08T05:26:00.394Z,94.58
2022-12-08T05:28:43.814Z,94.71
2022-12-08T05:31:12.609Z,94.33
2022-12-08T05:33:39.753Z,94.31
2022-12-08T05:36:07.002Z,94.54
2022-12-08T05:38:34.032Z,94.39
2022-12-08T05:41:00.750Z,93.84
2022-12-08T05:43:27.604Z,94.31
2022-12-08T05:45:54.314Z,93.42
2022-12-08T05:48:20.997Z,93.03
2022-12-08T05:50:48.948Z,93.13
2022-12-08T05:53:16.718Z,93.02
2022-12-08T05:55:43.508Z,92.68
2022-12-08T05:58:19.248Z,92.72
2022-12-08T06:00:46.854Z,92.32
2022-12-08T06:03:14.607Z,92.30
2022-12-08T06:05:42.522Z,92.52
2022-12-08T06:08:09.539Z,92.30
2022-12-08T06:10:38.867Z,92.69
2022-12-08T06:13:05.593Z,92.60
2022-12-08T06:15:35.135Z,92.94
2022-12-08T06:18:01.946Z,93.03
2022-12-08T06:20:28.922Z,93.32
2022-12-08T06:22:56.734Z,93.18
2022-12-08T06:25:24.200Z,93.07
2022-12-08T06:27:51.398Z,92.97
2022-12-08T06:30:19.477Z,92.93
2022-12-08T06:32:46.322Z,93.29
2022-12-08T06:35:13.003Z,92.71
2022-12-08T06:37:42.717Z,92.99
2022-12-08T06:40:09.783Z,93.54
2022-12-08T06:42:45.186Z,93.64
2022-12-08T06:45:17.513Z,93.88
2022-12-08T06:47:45.151Z,94.32
2022-12-08T06:50:13.081Z,94.48
2022-12-08T06:52:51.595Z,94.57
2022-12-08T06:55:50.684Z,94.81
2022-12-08T06:58:09.773Z,94.83
2022-12-08T07:00:36.442Z,94.78
2022-12-08T07:03:03.496Z,94.69
2022-12-08T07:05:30.484Z,94.35
2022-12-08T07:07:57.672Z,94.65
2022-12-08T07:10:24.368Z,94.24
2022-12-08T07:12:50.922Z,94.24
2022-12-08T07:15:17.868Z,94.09
2022-12-08T07:17:44.564Z,94.28
2022-12-08T07:20:11.549Z,93.92
2022-12-08T07:22:38.157Z,93.96
2022-12-08T07:25:05.631Z,93.78
2022-12-08T07:27:32.267Z,93.61
2022-12-08T07:33:50.512Z,93.73
2022-12-08T07:36:17.218Z,93.78
2022-12-08T07:38:43.976Z,93.84
2022-12-08T07:41:19.108Z,93.52
2022-12-08T07:43:45.793Z,93.52
2022-12-08T07:46:14.538Z,93.28
2022-12-08T07:48:42.083Z,93.21
2022-12-08T07:51:12.691Z,93.51
2022-12-08T07:53:47.280Z,93.21
2022-12-08T07:56:18.899Z,93.50
2022-12-08T07:58:46.901Z,93.44
2022-12-08T08:01:28.754Z,93.53
2022-12-08T08:03:57.548Z,93.84
2022-12-08T08:06:24.853Z,93.75
2022-12-08T08:08:51.460Z,93.97
2022-12-08T08:11:21.396Z,94.16
2022-12-08T08:13:49.826Z,94.06
2022-12-08T08:16:16.882Z,93.96
2022-12-08T08:18:43.836Z,94.19
2022-12-08T08:23:57.125Z,94.42
2022-12-08T08:26:23.860Z,94.63
2022-12-08T08:28:50.464Z,94.65
2022-12-08T08:31:17.163Z,94.77
2022-12-08T08:33:43.894Z,94.71
2022-12-08T08:36:11.636Z,94.97
2022-12-08T08:38:42.972Z,95.04
2022-12-08T08:41:12.906Z,94.74
2022-12-08T08:43:39.744Z,94.86
2022-12-08T08:46:07.438Z,94.84
2022-12-08T08:48:34.346Z,94.09
2022-12-08T08:51:08.947Z,94.17
2022-12-08T08:53:36.021Z,94.13
2022-12-08T08:56:05.206Z,93.95
2022-12-08T08:58:31.814Z,93.85
2022-12-08T09:00:58.471Z,94.16
2022-12-08T09:03:25.213Z,94.01
2022-12-08T09:05:52.727Z,93.77
2022-12-08T09:08:19.660Z,93.81
2022-12-08T09:10:46.426Z,93.94
2022-12-08T09:13:13.299Z,94.01
2022-12-08T09:15:41.650Z,93.71
2022-12-08T09:18:08.362Z,93.50
2022-12-08T09:20:35.948Z,93.11
2022-12-08T09:23:02.713Z,93.25
2022-12-08T09:25:29.555Z,93.23
2022-12-08T09:27:56.199Z,93.05
2022-12-08T09:30:23.120Z,93.42
2022-12-08T09:32:52.944Z,93.19
2022-12-08T09:35:19.717Z,93.20
2022-12-08T09:37:46.407Z,92.76
2022-12-08T09:40:19.627Z,92.74
2022-12-08T09:42:58.093Z,92.59
2022-12-08T09:45:28.998Z,92.51
2022-12-08T09:48:19.342Z,92.55
2022-12-08T09:50:52.718Z,92.12
2022-12-08T09:53:35.274Z,92.21
2022-12-08T09:56:21.154Z,91.61
2022-12-08T09:58:58.203Z,91.75
2022-12-08T10:01:29.920Z,91.68
2022-12-08T10:03:56.972Z,91.62
2022-12-08T10:06:46.679Z,91.59
2022-12-08T10:09:39.294Z,91.06
2022-12-08T10:12:17.568Z,90.54
2022-12-08T10:14:49.275Z,90.44
2022-12-08T10:17:22.138Z,90.02
2022-12-08T10:19:51.658Z,90.39
2022-12-08T10:22:24.147Z,90.58
2022-12-08T10:25:20.982Z,90.48
2022-12-08T10:27:53.503Z,91.20
2022-12-08T10:30:22.205Z,91.79
2022-12-08T10:32:51.173Z,91.86
2022-12-08T10:35:19.987Z,91.73
2022-12-08T10:37:58.361Z,91.88
2022-12-08T10:40:28.704Z,91.74
2022-12-08T10:42:58.603Z,91.98
2022-12-08T10:45:27.046Z,91.44
2022-12-08T10:48:09.996Z,91.99
2022-12-08T10:50:45.676Z,91.82
2022-12-08T10:53:30.516Z,91.83
2022-12-08T10:56:03.145Z,91.93
2022-12-08T10:58:34.162Z,91.85
2022-12-08T11:01:06.312Z,91.34
2022-12-08T11:03:44.890Z,91.43
2022-12-08T11:06:28.696Z,91.04
2022-12-08T11:09:00.946Z,90.98
2022-12-08T11:11:45.139Z,91.07
2022-12-08T11:14:31.824Z,90.49
2022-12-08T11:17:12.026Z,91.01
2022-12-08T11:19:40.795Z,90.76
2022-12-08T11:22:32.588Z,90.63
2022-12-08T11:25:16.737Z,90.55
2022-12-08T11:27:46.989Z,90.73
2022-12-08T11:30:21.329Z,90.65
2022-12-08T11:32:51.316Z,90.47
2022-12-08T11:35:26.982Z,90.76
2022-12-08T11:38:13.434Z,90.47
2022-12-08T11:40:44.633Z,90.82
2022-12-08T11:43:25.688Z,90.75
2022-12-08T11:46:16.703Z,90.91
2022-12-08T11:49:06.673Z,90.62
2022-12-08T11:51:38.780Z,90.01
2022-12-08T11:54:24.467Z,89.14
2022-12-08T11:56:58.844Z,89.55
2022-12-08T11:59:49.856Z,89.30
2022-12-08T12:02:27.419Z,88.94
2022-12-08T12:05:08.151Z,88.71
2022-12-08T12:08:03.172Z,89.30
2022-12-08T12:10:48.232Z,89.01
2022-12-08T12:13:15.111Z,88.53
2022-12-08T12:16:40.734Z,87.88
2022-12-08T12:19:15.673Z,87.73
2022-12-08T12:21:46.740Z,87.61
2022-12-08T12:24:39.881Z,87.73
2022-12-08T12:27:15.574Z,87.84
2022-12-08T12:29:52.232Z,87.80
2022-12-08T12:36:18.260Z,87.55
2022-12-08T12:39:09.485Z,87.83
2022-12-08T12:41:42.016Z,88.13
2022-12-08T12:44:15.564Z,88.06
2022-12-08T12:46:51.533Z,87.67
2022-12-08T12:49:39.946Z,88.19
2022-12-08T12:52:19.036Z,87.68
2022-12-08T12:55:11.525Z,87.62
2022-12-08T12:57:50.342Z,87.44
2022-12-08T13:00:22.450Z,87.14
2022-12-08T13:02:50.134Z,87.27
2022-12-08T13:05:25.089Z,87.33
2022-12-08T13:07:54.840Z,86.85
2022-12-08T13:10:50.101Z,87.30
2022-12-08T13:13:19.995Z,87.56
2022-12-08T13:16:18.759Z,86.99
2022-12-08T16:32:04.417Z,82.01
2022-12-08T16:34:40.097Z,82.20
2022-12-08T16:37:08.342Z,82.06
2022-12-08T16:39:35.088Z,82.14
2022-12-08T16:42:20.612Z,82.01
2022-12-08T16:44:47.220Z,81.90
2022-12-08T16:47:21.435Z,81.39
2022-12-08T16:49:48.228Z,82.09
2022-12-08T16:52:15.605Z,81.60
2022-12-08T16:54:51.540Z,82.14
2022-12-08T16:57:20.087Z,81.64
2022-12-08T16:59:47.078Z,81.85
2022-12-08T17:02:16.760Z,81.83
2022-12-08T17:04:43.733Z,81.93
2022-12-08T17:13:08.828Z,82.35
2022-12-08T17:15:38.451Z,81.91
2022-12-08T17:18:05.258Z,82.64
2022-12-08T17:20:48.579Z,81.71
2022-12-08T17:26:36.281Z,83.02
2022-12-08T17:29:38.135Z,83.48
2022-12-08T17:32:24.166Z,83.65
2022-12-08T17:34:56.711Z,83.70
2022-12-08T17:37:33.676Z,84.06
2022-12-08T17:40:10.093Z,83.41
2022-12-08T17:42:47.702Z,83.46
2022-12-08T17:48:38.985Z,84.43
2022-12-08T17:52:22.332Z,83.90
2022-12-08T17:54:29.720Z,84.43
2022-12-08T17:57:03.989Z,84.22
2022-12-08T17:59:31.314Z,84.44
2022-12-08T18:02:00.326Z,84.11
2022-12-08T18:04:33.717Z,83.49
2022-12-08T18:07:05.019Z,83.83
2022-12-08T18:09:45.556Z,83.91
2022-12-08T18:12:23.270Z,83.14
2022-12-08T18:17:38.691Z,83.83
2022-12-08T18:20:09.517Z,83.52
2022-12-08T18:22:36.588Z,83.64
2022-12-08T18:25:04.666Z,83.97
2022-12-08T18:27:42.990Z,83.94
2022-12-08T18:30:21.908Z,83.74
2022-12-08T18:32:57.578Z,83.92
2022-12-08T18:35:24.442Z,84.28
2022-12-08T18:40:46.509Z,84.39
2022-12-08T18:43:27.293Z,84.52
2022-12-08T18:46:07.705Z,84.12
2022-12-08T18:48:45.729Z,84.11
2022-12-08T18:51:14.483Z,84.30
2022-12-08T18:53:47.892Z,84.45
2022-12-08T18:58:41.258Z,84.38
2022-12-08T19:06:45.380Z,84.21
2022-12-08T19:11:53.353Z,83.82
2022-12-08T19:14:28.779Z,83.99
2022-12-08T19:16:56.413Z,84.11
2022-12-08T19:19:23.112Z,83.93
2022-12-08T19:21:50.106Z,83.73
2022-12-08T19:24:17.113Z,83.97
2022-12-08T19:26:44.195Z,84.08
2022-12-08T19:29:14.499Z,84.33
2022-12-08T19:31:41.716Z,84.64
2022-12-08T19:34:09.692Z,84.34
2022-12-08T19:36:42.594Z,84.24
2022-12-08T19:40:05.919Z,84.38
2022-12-08T19:42:51.164Z,84.36
2022-12-08T19:45:25.815Z,84.39
2022-12-08T19:47:52.524Z,84.82
2022-12-08T19:50:37.718Z,84.76
2022-12-08T19:53:11.938Z,85.19
2022-12-08T19:55:39.678Z,85.40
2022-12-08T19:58:07.543Z,85.71
2022-12-08T20:00:35.008Z,85.73
2022-12-08T20:03:03.084Z,85.46
2022-12-08T20:05:31.364Z,85.83
2022-12-08T20:08:04.327Z,85.56
2022-12-08T20:10:36.916Z,85.91
2022-12-08T20:13:23.103Z,86.07
2022-12-08T20:15:50.388Z,85.67
2022-12-08T20:18:20.637Z,86.06
2022-12-08T20:20:47.645Z,86.14
2022-12-08T20:23:15.439Z,85.98
2022-12-08T20:25:44.817Z,86.05
2022-12-08T20:28:11.753Z,86.34
2022-12-08T20:30:39.357Z,86.03
2022-12-08T20:33:06.548Z,86.17
2022-12-08T20:35:34.614Z,86.30
2022-12-08T20:38:07.407Z,86.28
2022-12-08T20:40:34.038Z,86.24
2022-12-08T20:43:00.895Z,85.65
2022-12-08T20:45:27.595Z,86.13
2022-12-08T20:47:54.444Z,86.30
2022-12-08T20:50:37.039Z,86.00
2022-12-08T20:53:03.953Z,85.96
2022-12-08T20:55:30.666Z,86.01
2022-12-08T20:57:57.413Z,86.19
2022-12-08T21:00:26.137Z,85.70
2022-12-08T21:02:56.956Z,85.95
2022-12-08T21:05:26.457Z,85.66
2022-12-08T21:07:55.028Z,85.99
2022-12-08T21:10:24.020Z,86.02
2022-12-08T21:13:02.506Z,85.98
2022-12-08T21:15:29.161Z,85.94
2022-12-08T21:17:59.366Z,86.20
2022-12-08T21:20:32.692Z,86.22
2022-12-08T21:23:02.380Z,85.60
2022-12-08T21:25:29.203Z,85.25
2022-12-08T21:27:58.996Z,85.26
2022-12-08T21:30:25.762Z,85.54
2022-12-08T21:32:52.691Z,85.39
2022-12-08T21:35:30.700Z,85.45
2022-12-08T21:38:00.330Z,85.19
2022-12-08T21:40:27.403Z,85.39
2022-12-08T21:42:54.225Z,84.75
2022-12-08T21:45:27.075Z,85.35
2022-12-08T21:47:59.595Z,85.52
2022-12-08T21:50:28.530Z,85.02
2022-12-08T21:52:59.796Z,85.06
2022-12-08T21:55:26.921Z,85.06
2022-12-08T21:58:03.440Z,84.90
2022-12-08T22:00:38.569Z,84.43
2022-12-08T22:06:01.005Z,84.47
2022-12-08T22:08:28.277Z,84.18
2022-12-08T22:10:55.232Z,84.38
2022-12-08T22:13:24.915Z,84.03
2022-12-08T22:16:02.106Z,83.89
2022-12-08T22:18:29.324Z,83.98
2022-12-08T22:20:56.569Z,83.58
2022-12-08T22:23:26.873Z,83.28
2022-12-08T22:26:02.111Z,83.85
2022-12-08T22:28:45.397Z,84.85
2022-12-08T22:31:15.421Z,84.50
2022-12-08T22:33:51.338Z,84.72
2022-12-08T22:36:25.842Z,85.64
2022-12-08T22:38:54.100Z,85.77
2022-12-08T22:41:22.156Z,85.34
2022-12-08T22:43:49.693Z,85.87
2022-12-08T22:49:08.842Z,85.78
2022-12-08T22:51:40.442Z,86.22
2022-12-08T22:54:37.987Z,86.24
2022-12-08T22:57:26.993Z,86.54
2022-12-08T22:59:53.610Z,86.35
2022-12-08T23:02:21.718Z,86.65
2022-12-08T23:04:48.835Z,86.72
2022-12-08T23:07:16.791Z,87.04
2022-12-08T23:09:44.663Z,86.95
2022-12-08T23:12:11.724Z,86.84
2022-12-08T23:14:48.904Z,87.28
2022-12-08T23:17:15.977Z,87.33
2022-12-08T23:19:46.611Z,87.31
2022-12-08T23:22:13.947Z,87.84
2022-12-08T23:24:40.858Z,88.28
2022-12-08T23:27:08.259Z,88.49
2022-12-08T23:29:35.642Z,88.49
2022-12-08T23:32:02.518Z,88.65
2022-12-08T23:34:29.668Z,88.75
2022-12-08T23:37:08.318Z,88.92
2022-12-08T23:39:35.571Z,89.09
2022-12-08T23:42:05.765Z,89.59
2022-12-08T23:44:35.815Z,89.92
2022-12-08T23:49:52.020Z,90.49
2022-12-08T23:52:18.836Z,90.18
2022-12-08T23:54:45.723Z,90.54
2022-12-08T23:57:12.822Z,90.11
2022-12-08T23:59:39.707Z,90.36
